sensor_id;sensor_type;location;lat;lon;timestamp;P1;P2;P0
75946;PMS5003;64628;50.104;14.614;2023-03-05T00:02:07;54;46;
75946;PMS5003;64628;50.104;14.614;2023-03-05T00:04:32;50;40;
75946;PMS5003;64628;50.104;14.614;2023-03-05T00:06:57;53;44;
75946;PMS5003;64628;50.104;14.614;2023-03-05T00:09:22;48;38;
75946;PMS5003;64628;50.104;14.614;2023-03-05T00:11:47;47;36;
75946;PMS5003;64628;50.104;14.614;2023-03-05T00:14:13;54;46;
75946;PMS5003;64628;50.104;14.614;2023-03-05T00:16:38;53;46;
75946;PMS5003;64628;50.104;14.614;2023-03-05T00:19:04;56;46;
75946;PMS5003;64628;50.104;14.614;2023-03-05T00:21:30;55;41;
75946;PMS5003;64628;50.104;14.614;2023-03-05T00:23:55;52;41;
75946;PMS5003;64628;50.104;14.614;2023-03-05T00:26:21;54;46;
75946;PMS5003;64628;50.104;14.614;2023-03-05T00:28:45;45;38;
75946;PMS5003;64628;50.104;14.614;2023-03-05T00:31:11;47;45;
75946;PMS5003;64628;50.104;14.614;2023-03-05T00:33:36;59;42;
75946;PMS5003;64628;50.104;14.614;2023-03-05T00:36:04;59;53;
75946;PMS5003;64628;50.104;14.614;2023-03-05T00:38:27;59;41;
75946;PMS5003;64628;50.104;14.614;2023-03-05T00:40:52;53;47;
75946;PMS5003;64628;50.104;14.614;2023-03-05T00:43:18;46;41;
75946;PMS5003;64628;50.104;14.614;2023-03-05T00:45:43;51;36;
75946;PMS5003;64628;50.104;14.614;2023-03-05T00:48:09;36;33;
75946;PMS5003;64628;50.104;14.614;2023-03-05T00:50:35;43;35;
75946;PMS5003;64628;50.104;14.614;2023-03-05T00:53:00;47;35;
75946;PMS5003;64628;50.104;14.614;2023-03-05T00:55:26;37;32;
75946;PMS5003;64628;50.104;14.614;2023-03-05T00:57:52;37;35;
75946;PMS5003;64628;50.104;14.614;2023-03-05T01:00:18;28;23;
75946;PMS5003;64628;50.104;14.614;2023-03-05T01:02:43;27;27;
75946;PMS5003;64628;50.104;14.614;2023-03-05T01:05:09;28;22;
75946;PMS5003;64628;50.104;14.614;2023-03-05T01:07:34;24;16;
75946;PMS5003;64628;50.104;14.614;2023-03-05T01:10:00;30;26;
75946;PMS5003;64628;50.104;14.614;2023-03-05T01:12:25;27;20;
75946;PMS5003;64628;50.104;14.614;2023-03-05T01:14:50;32;22;
75946;PMS5003;64628;50.104;14.614;2023-03-05T01:17:15;14;11;
75946;PMS5003;64628;50.104;14.614;2023-03-05T01:19:41;20;17;
75946;PMS5003;64628;50.104;14.614;2023-03-05T01:22:06;23;18;
75946;PMS5003;64628;50.104;14.614;2023-03-05T01:24:31;22;18;
75946;PMS5003;64628;50.104;14.614;2023-03-05T01:26:58;30;20;
75946;PMS5003;64628;50.104;14.614;2023-03-05T01:29:22;24;23;
75946;PMS5003;64628;50.104;14.614;2023-03-05T01:31:48;22;19;
75946;PMS5003;64628;50.104;14.614;2023-03-05T01:34:14;30;18;
75946;PMS5003;64628;50.104;14.614;2023-03-05T01:36:39;23;17;
75946;PMS5003;64628;50.104;14.614;2023-03-05T01:39:05;23;19;
75946;PMS5003;64628;50.104;14.614;2023-03-05T01:41:30;27;22;
75946;PMS5003;64628;50.104;14.614;2023-03-05T01:43:56;36;26;
75946;PMS5003;64628;50.104;14.614;2023-03-05T01:46:25;32;23;
75946;PMS5003;64628;50.104;14.614;2023-03-05T01:48:47;28;22;
75946;PMS5003;64628;50.104;14.614;2023-03-05T01:51:13;22;19;
75946;PMS5003;64628;50.104;14.614;2023-03-05T01:53:38;26;20;
75946;PMS5003;64628;50.104;14.614;2023-03-05T01:56:04;32;31;
75946;PMS5003;64628;50.104;14.614;2023-03-05T01:58:28;23;20;
75946;PMS5003;64628;50.104;14.614;2023-03-05T02:00:54;32;22;
75946;PMS5003;64628;50.104;14.614;2023-03-05T02:03:20;35;22;
75946;PMS5003;64628;50.104;14.614;2023-03-05T02:05:45;30;18;
75946;PMS5003;64628;50.104;14.614;2023-03-05T02:08:11;23;18;
75946;PMS5003;64628;50.104;14.614;2023-03-05T02:10:38;24;20;
75946;PMS5003;64628;50.104;14.614;2023-03-05T02:13:02;30;23;
75946;PMS5003;64628;50.104;14.614;2023-03-05T02:15:27;28;20;
75946;PMS5003;64628;50.104;14.614;2023-03-05T02:17:53;27;19;
75946;PMS5003;64628;50.104;14.614;2023-03-05T02:20:19;27;22;
75946;PMS5003;64628;50.104;14.614;2023-03-05T02:22:44;24;20;
75946;PMS5003;64628;50.104;14.614;2023-03-05T02:25:13;24;19;
75946;PMS5003;64628;50.104;14.614;2023-03-05T02:27:34;21;21;
75946;PMS5003;64628;50.104;14.614;2023-03-05T02:30:00;25;21;
75946;PMS5003;64628;50.104;14.614;2023-03-05T02:32:26;23;19;
75946;PMS5003;64628;50.104;14.614;2023-03-05T02:34:51;31;24;
75946;PMS5003;64628;50.104;14.614;2023-03-05T02:37:16;22;15;
75946;PMS5003;64628;50.104;14.614;2023-03-05T02:39:41;29;25;
75946;PMS5003;64628;50.104;14.614;2023-03-05T02:42:07;34;22;
75946;PMS5003;64628;50.104;14.614;2023-03-05T02:44:32;23;19;
75946;PMS5003;64628;50.104;14.614;2023-03-05T02:46:57;27;22;
75946;PMS5003;64628;50.104;14.614;2023-03-05T02:49:23;27;23;
75946;PMS5003;64628;50.104;14.614;2023-03-05T02:51:48;31;27;
75946;PMS5003;64628;50.104;14.614;2023-03-05T02:54:13;28;22;
75946;PMS5003;64628;50.104;14.614;2023-03-05T02:56:39;29;22;
75946;PMS5003;64628;50.104;14.614;2023-03-05T02:59:05;28;21;
75946;PMS5003;64628;50.104;14.614;2023-03-05T03:01:30;32;25;
75946;PMS5003;64628;50.104;14.614;2023-03-05T03:03:55;32;26;
75946;PMS5003;64628;50.104;14.614;2023-03-05T03:06:20;31;29;
75946;PMS5003;64628;50.104;14.614;2023-03-05T03:08:45;32;25;
75946;PMS5003;64628;50.104;14.614;2023-03-05T03:11:11;34;26;
75946;PMS5003;64628;50.104;14.614;2023-03-05T03:13:36;33;27;
75946;PMS5003;64628;50.104;14.614;2023-03-05T03:16:02;29;21;
75946;PMS5003;64628;50.104;14.614;2023-03-05T03:18:27;32;26;
75946;PMS5003;64628;50.104;14.614;2023-03-05T03:20:53;29;27;
75946;PMS5003;64628;50.104;14.614;2023-03-05T03:23:18;30;29;
75946;PMS5003;64628;50.104;14.614;2023-03-05T03:25:43;25;23;
75946;PMS5003;64628;50.104;14.614;2023-03-05T03:28:09;30;22;
75946;PMS5003;64628;50.104;14.614;2023-03-05T03:30:34;35;22;
75946;PMS5003;64628;50.104;14.614;2023-03-05T03:33:00;30;26;
75946;PMS5003;64628;50.104;14.614;2023-03-05T03:35:25;27;23;
75946;PMS5003;64628;50.104;14.614;2023-03-05T03:37:51;26;23;
75946;PMS5003;64628;50.104;14.614;2023-03-05T03:40:17;31;27;
75946;PMS5003;64628;50.104;14.614;2023-03-05T03:42:42;31;26;
75946;PMS5003;64628;50.104;14.614;2023-03-05T03:45:08;33;27;
75946;PMS5003;64628;50.104;14.614;2023-03-05T03:47:33;38;34;
75946;PMS5003;64628;50.104;14.614;2023-03-05T03:49:59;38;33;
75946;PMS5003;64628;50.104;14.614;2023-03-05T03:52:24;43;27;
75946;PMS5003;64628;50.104;14.614;2023-03-05T03:54:49;31;26;
75946;PMS5003;64628;50.104;14.614;2023-03-05T03:57:15;42;33;
75946;PMS5003;64628;50.104;14.614;2023-03-05T03:59:39;39;26;
75946;PMS5003;64628;50.104;14.614;2023-03-05T04:02:05;43;29;
75946;PMS5003;64628;50.104;14.614;2023-03-05T04:04:31;27;25;
75946;PMS5003;64628;50.104;14.614;2023-03-05T04:06:56;40;32;
75946;PMS5003;64628;50.104;14.614;2023-03-05T04:09:22;28;22;
75946;PMS5003;64628;50.104;14.614;2023-03-05T04:11:47;32;28;
75946;PMS5003;64628;50.104;14.614;2023-03-05T04:14:12;27;19;
75946;PMS5003;64628;50.104;14.614;2023-03-05T04:16:38;37;25;
75946;PMS5003;64628;50.104;14.614;2023-03-05T04:19:04;31;27;
75946;PMS5003;64628;50.104;14.614;2023-03-05T04:21:29;21;19;
75946;PMS5003;64628;50.104;14.614;2023-03-05T04:23:54;27;21;
75946;PMS5003;64628;50.104;14.614;2023-03-05T04:26:19;17;15;
75946;PMS5003;64628;50.104;14.614;2023-03-05T04:28:45;34;30;
75946;PMS5003;64628;50.104;14.614;2023-03-05T04:31:10;18;15;
75946;PMS5003;64628;50.104;14.614;2023-03-05T04:33:35;28;24;
75946;PMS5003;64628;50.104;14.614;2023-03-05T04:38:26;21;14;
75946;PMS5003;64628;50.104;14.614;2023-03-05T04:40:51;29;25;
75946;PMS5003;64628;50.104;14.614;2023-03-05T04:43:17;29;28;
75946;PMS5003;64628;50.104;14.614;2023-03-05T04:45:43;21;15;
75946;PMS5003;64628;50.104;14.614;2023-03-05T04:48:08;18;16;
75946;PMS5003;64628;50.104;14.614;2023-03-05T04:50:33;22;17;
75946;PMS5003;64628;50.104;14.614;2023-03-05T04:52:58;20;14;
75946;PMS5003;64628;50.104;14.614;2023-03-05T04:55:24;24;18;
75946;PMS5003;64628;50.104;14.614;2023-03-05T04:57:49;16;14;
75946;PMS5003;64628;50.104;14.614;2023-03-05T05:00:15;18;17;
75946;PMS5003;64628;50.104;14.614;2023-03-05T05:02:40;21;14;
75946;PMS5003;64628;50.104;14.614;2023-03-05T05:05:06;21;17;
75946;PMS5003;64628;50.104;14.614;2023-03-05T05:07:31;20;17;
75946;PMS5003;64628;50.104;14.614;2023-03-05T05:09:56;24;20;
75946;PMS5003;64628;50.104;14.614;2023-03-05T05:12:21;18;18;
75946;PMS5003;64628;50.104;14.614;2023-03-05T05:14:47;16;13;
75946;PMS5003;64628;50.104;14.614;2023-03-05T05:17:12;22;16;
75946;PMS5003;64628;50.104;14.614;2023-03-05T05:19:38;24;16;
75946;PMS5003;64628;50.104;14.614;2023-03-05T05:22:04;20;16;
75946;PMS5003;64628;50.104;14.614;2023-03-05T05:24:29;28;21;
75946;PMS5003;64628;50.104;14.614;2023-03-05T05:26:54;16;16;
75946;PMS5003;64628;50.104;14.614;2023-03-05T05:29:20;21;14;
75946;PMS5003;64628;50.104;14.614;2023-03-05T05:31:45;17;13;
75946;PMS5003;64628;50.104;14.614;2023-03-05T05:34:11;22;16;
75946;PMS5003;64628;50.104;14.614;2023-03-05T05:36:37;17;17;
75946;PMS5003;64628;50.104;14.614;2023-03-05T05:39:03;18;14;
75946;PMS5003;64628;50.104;14.614;2023-03-05T05:41:28;17;13;
75946;PMS5003;64628;50.104;14.614;2023-03-05T05:43:53;22;17;
75946;PMS5003;64628;50.104;14.614;2023-03-05T05:46:19;20;14;
75946;PMS5003;64628;50.104;14.614;2023-03-05T05:48:44;16;14;
75946;PMS5003;64628;50.104;14.614;2023-03-05T05:51:11;17;16;
75946;PMS5003;64628;50.104;14.614;2023-03-05T05:53:35;21;16;
75946;PMS5003;64628;50.104;14.614;2023-03-05T05:56:02;21;17;
75946;PMS5003;64628;50.104;14.614;2023-03-05T05:58:27;17;12;
75946;PMS5003;64628;50.104;14.614;2023-03-05T06:00:52;14;10;
75946;PMS5003;64628;50.104;14.614;2023-03-05T06:03:18;21;17;
75946;PMS5003;64628;50.104;14.614;2023-03-05T06:05:44;13;10;
75946;PMS5003;64628;50.104;14.614;2023-03-05T06:08:09;18;16;
75946;PMS5003;64628;50.104;14.614;2023-03-05T06:10:35;26;21;
75946;PMS5003;64628;50.104;14.614;2023-03-05T06:13:00;16;12;
75946;PMS5003;64628;50.104;14.614;2023-03-05T06:15:26;17;12;
75946;PMS5003;64628;50.104;14.614;2023-03-05T06:17:51;18;16;
75946;PMS5003;64628;50.104;14.614;2023-03-05T06:20:17;13;13;
75946;PMS5003;64628;50.104;14.614;2023-03-05T06:22:42;14;12;
75946;PMS5003;64628;50.104;14.614;2023-03-05T06:25:08;17;16;
75946;PMS5003;64628;50.104;14.614;2023-03-05T06:27:33;17;14;
75946;PMS5003;64628;50.104;14.614;2023-03-05T06:29:58;12;9;
75946;PMS5003;64628;50.104;14.614;2023-03-05T06:32:24;13;10;
75946;PMS5003;64628;50.104;14.614;2023-03-05T06:34:49;16;13;
75946;PMS5003;64628;50.104;14.614;2023-03-05T06:37:15;17;16;
75946;PMS5003;64628;50.104;14.614;2023-03-05T06:39:40;20;18;
75946;PMS5003;64628;50.104;14.614;2023-03-05T06:42:06;20;13;
75946;PMS5003;64628;50.104;14.614;2023-03-05T06:44:31;18;14;
75946;PMS5003;64628;50.104;14.614;2023-03-05T06:46:57;14;10;
75946;PMS5003;64628;50.104;14.614;2023-03-05T06:49:23;10;10;
75946;PMS5003;64628;50.104;14.614;2023-03-05T06:51:48;13;12;
75946;PMS5003;64628;50.104;14.614;2023-03-05T06:54:14;17;16;
75946;PMS5003;64628;50.104;14.614;2023-03-05T06:56:40;22;14;
75946;PMS5003;64628;50.104;14.614;2023-03-05T06:59:05;19;15;
75946;PMS5003;64628;50.104;14.614;2023-03-05T07:01:30;22;15;
75946;PMS5003;64628;50.104;14.614;2023-03-05T07:03:55;13;9;
75946;PMS5003;64628;50.104;14.614;2023-03-05T07:06:21;17;10;
75946;PMS5003;64628;50.104;14.614;2023-03-05T07:08:46;11;10;
75946;PMS5003;64628;50.104;14.614;2023-03-05T07:11:13;14;12;
75946;PMS5003;64628;50.104;14.614;2023-03-05T07:13:38;15;11;
75946;PMS5003;64628;50.104;14.614;2023-03-05T07:16:04;13;8;
75946;PMS5003;64628;50.104;14.614;2023-03-05T07:18:29;10;7;
75946;PMS5003;64628;50.104;14.614;2023-03-05T07:20:55;10;7;
75946;PMS5003;64628;50.104;14.614;2023-03-05T07:23:20;11;9;
75946;PMS5003;64628;50.104;14.614;2023-03-05T07:25:46;13;7;
75946;PMS5003;64628;50.104;14.614;2023-03-05T07:28:12;14;10;
75946;PMS5003;64628;50.104;14.614;2023-03-05T07:30:37;16;12;
75946;PMS5003;64628;50.104;14.614;2023-03-05T07:33:03;13;13;
75946;PMS5003;64628;50.104;14.614;2023-03-05T07:35:29;23;23;
75946;PMS5003;64628;50.104;14.614;2023-03-05T07:37:54;17;14;
75946;PMS5003;64628;50.104;14.614;2023-03-05T07:40:20;13;13;
75946;PMS5003;64628;50.104;14.614;2023-03-05T07:42:45;19;17;
75946;PMS5003;64628;50.104;14.614;2023-03-05T07:45:11;18;13;
75946;PMS5003;64628;50.104;14.614;2023-03-05T07:47:36;17;11;
75946;PMS5003;64628;50.104;14.614;2023-03-05T07:50:02;11;10;
75946;PMS5003;64628;50.104;14.614;2023-03-05T07:52:27;10;6;
75946;PMS5003;64628;50.104;14.614;2023-03-05T07:54:52;21;15;
75946;PMS5003;64628;50.104;14.614;2023-03-05T07:57:18;15;13;
75946;PMS5003;64628;50.104;14.614;2023-03-05T07:59:43;10;7;
75946;PMS5003;64628;50.104;14.614;2023-03-05T08:02:09;9;6;
75946;PMS5003;64628;50.104;14.614;2023-03-05T08:04:35;13;11;
75946;PMS5003;64628;50.104;14.614;2023-03-05T08:07:00;11;9;
75946;PMS5003;64628;50.104;14.614;2023-03-05T08:09:26;13;10;
75946;PMS5003;64628;50.104;14.614;2023-03-05T08:11:52;11;11;
75946;PMS5003;64628;50.104;14.614;2023-03-05T08:14:17;11;10;
75946;PMS5003;64628;50.104;14.614;2023-03-05T08:16:43;15;11;
75946;PMS5003;64628;50.104;14.614;2023-03-05T08:19:09;11;6;
75946;PMS5003;64628;50.104;14.614;2023-03-05T08:21:35;9;6;
75946;PMS5003;64628;50.104;14.614;2023-03-05T08:24:00;12;7;
75946;PMS5003;64628;50.104;14.614;2023-03-05T08:26:26;8;6;
75946;PMS5003;64628;50.104;14.614;2023-03-05T08:28:51;6;5;
75946;PMS5003;64628;50.104;14.614;2023-03-05T08:31:18;2;2;
75946;PMS5003;64628;50.104;14.614;2023-03-05T08:33:42;8;7;
75946;PMS5003;64628;50.104;14.614;2023-03-05T08:36:08;7;7;
75946;PMS5003;64628;50.104;14.614;2023-03-05T08:38:34;10;7;
75946;PMS5003;64628;50.104;14.614;2023-03-05T08:40:59;7;5;
75946;PMS5003;64628;50.104;14.614;2023-03-05T08:43:25;5;1;
75946;PMS5003;64628;50.104;14.614;2023-03-05T08:45:50;4;4;
75946;PMS5003;64628;50.104;14.614;2023-03-05T08:48:16;7;6;
75946;PMS5003;64628;50.104;14.614;2023-03-05T08:50:42;4;4;
75946;PMS5003;64628;50.104;14.614;2023-03-05T08:53:07;3;2;
75946;PMS5003;64628;50.104;14.614;2023-03-05T08:55:33;2;2;
75946;PMS5003;64628;50.104;14.614;2023-03-05T08:57:58;1;1;
75946;PMS5003;64628;50.104;14.614;2023-03-05T09:00:24;7;2;
75946;PMS5003;64628;50.104;14.614;2023-03-05T09:02:49;2;2;
75946;PMS5003;64628;50.104;14.614;2023-03-05T09:05:15;3;3;
75946;PMS5003;64628;50.104;14.614;2023-03-05T09:07:40;4;2;
75946;PMS5003;64628;50.104;14.614;2023-03-05T09:10:06;1;1;
75946;PMS5003;64628;50.104;14.614;2023-03-05T09:12:31;2;2;
75946;PMS5003;64628;50.104;14.614;2023-03-05T09:14:57;3;2;
75946;PMS5003;64628;50.104;14.614;2023-03-05T09:17:22;4;4;
75946;PMS5003;64628;50.104;14.614;2023-03-05T09:19:48;6;6;
75946;PMS5003;64628;50.104;14.614;2023-03-05T09:22:13;2;2;
75946;PMS5003;64628;50.104;14.614;2023-03-05T09:24:39;1;1;
75946;PMS5003;64628;50.104;14.614;2023-03-05T09:27:04;3;2;
75946;PMS5003;64628;50.104;14.614;2023-03-05T09:29:30;3;2;
75946;PMS5003;64628;50.104;14.614;2023-03-05T09:31:55;1;1;
75946;PMS5003;64628;50.104;14.614;2023-03-05T09:34:21;1;0;
75946;PMS5003;64628;50.104;14.614;2023-03-05T09:36:47;2;2;
75946;PMS5003;64628;50.104;14.614;2023-03-05T09:39:12;2;2;
75946;PMS5003;64628;50.104;14.614;2023-03-05T09:41:44;3;3;
75946;PMS5003;64628;50.104;14.614;2023-03-05T09:44:06;4;2;
75946;PMS5003;64628;50.104;14.614;2023-03-05T09:46:31;6;4;
75946;PMS5003;64628;50.104;14.614;2023-03-05T09:48:56;2;2;
75946;PMS5003;64628;50.104;14.614;2023-03-05T09:51:21;8;7;
75946;PMS5003;64628;50.104;14.614;2023-03-05T09:53:46;6;6;
75946;PMS5003;64628;50.104;14.614;2023-03-05T09:56:12;3;3;
75946;PMS5003;64628;50.104;14.614;2023-03-05T09:58:38;6;3;
75946;PMS5003;64628;50.104;14.614;2023-03-05T10:01:03;3;3;
75946;PMS5003;64628;50.104;14.614;2023-03-05T10:03:29;2;2;
75946;PMS5003;64628;50.104;14.614;2023-03-05T10:05:57;4;3;
75946;PMS5003;64628;50.104;14.614;2023-03-05T10:08:21;4;2;
75946;PMS5003;64628;50.104;14.614;2023-03-05T10:10:45;6;4;
75946;PMS5003;64628;50.104;14.614;2023-03-05T10:13:11;3;2;
75946;PMS5003;64628;50.104;14.614;2023-03-05T10:15:36;2;2;
75946;PMS5003;64628;50.104;14.614;2023-03-05T10:18:09;4;4;
75946;PMS5003;64628;50.104;14.614;2023-03-05T10:20:32;2;2;
75946;PMS5003;64628;50.104;14.614;2023-03-05T10:22:56;3;2;
75946;PMS5003;64628;50.104;14.614;2023-03-05T10:25:19;2;2;
75946;PMS5003;64628;50.104;14.614;2023-03-05T10:27:45;2;2;
75946;PMS5003;64628;50.104;14.614;2023-03-05T10:30:15;2;2;
75946;PMS5003;64628;50.104;14.614;2023-03-05T10:32:36;7;4;
75946;PMS5003;64628;50.104;14.614;2023-03-05T10:35:03;2;1;
75946;PMS5003;64628;50.104;14.614;2023-03-05T10:37:29;2;2;
75946;PMS5003;64628;50.104;14.614;2023-03-05T10:39:54;2;2;
75946;PMS5003;64628;50.104;14.614;2023-03-05T10:42:19;1;1;
75946;PMS5003;64628;50.104;14.614;2023-03-05T10:44:42;4;2;
75946;PMS5003;64628;50.104;14.614;2023-03-05T10:47:10;4;2;
75946;PMS5003;64628;50.104;14.614;2023-03-05T10:49:33;3;2;
75946;PMS5003;64628;50.104;14.614;2023-03-05T10:51:59;1;1;
75946;PMS5003;64628;50.104;14.614;2023-03-05T10:54:23;3;3;
75946;PMS5003;64628;50.104;14.614;2023-03-05T10:56:49;3;2;
75946;PMS5003;64628;50.104;14.614;2023-03-05T10:59:14;4;2;
75946;PMS5003;64628;50.104;14.614;2023-03-05T11:01:40;2;2;
75946;PMS5003;64628;50.104;14.614;2023-03-05T11:04:06;6;2;
75946;PMS5003;64628;50.104;14.614;2023-03-05T11:06:33;6;4;
75946;PMS5003;64628;50.104;14.614;2023-03-05T11:09:02;3;3;
75946;PMS5003;64628;50.104;14.614;2023-03-05T11:11:22;6;4;
75946;PMS5003;64628;50.104;14.614;2023-03-05T11:13:53;2;2;
75946;PMS5003;64628;50.104;14.614;2023-03-05T11:16:15;6;4;
75946;PMS5003;64628;50.104;14.614;2023-03-05T11:18:38;4;4;
75946;PMS5003;64628;50.104;14.614;2023-03-05T11:21:06;4;4;
75946;PMS5003;64628;50.104;14.614;2023-03-05T11:23:29;2;2;
75946;PMS5003;64628;50.104;14.614;2023-03-05T11:25:57;4;3;
75946;PMS5003;64628;50.104;14.614;2023-03-05T11:28:21;11;7;
75946;PMS5003;64628;50.104;14.614;2023-03-05T11:33:13;6;4;
75946;PMS5003;64628;50.104;14.614;2023-03-05T11:35:38;7;4;
75946;PMS5003;64628;50.104;14.614;2023-03-05T11:38:03;8;6;
75946;PMS5003;64628;50.104;14.614;2023-03-05T11:40:29;7;6;
75946;PMS5003;64628;50.104;14.614;2023-03-05T11:42:54;10;7;
75946;PMS5003;64628;50.104;14.614;2023-03-05T11:45:19;7;7;
75946;PMS5003;64628;50.104;14.614;2023-03-05T11:47:46;7;6;
75946;PMS5003;64628;50.104;14.614;2023-03-05T11:50:12;3;3;
75946;PMS5003;64628;50.104;14.614;2023-03-05T11:52:38;7;6;
75946;PMS5003;64628;50.104;14.614;2023-03-05T11:55:02;7;3;
75946;PMS5003;64628;50.104;14.614;2023-03-05T11:57:28;3;3;
75946;PMS5003;64628;50.104;14.614;2023-03-05T11:59:54;7;6;
75946;PMS5003;64628;50.104;14.614;2023-03-05T12:02:19;10;5;
75946;PMS5003;64628;50.104;14.614;2023-03-05T12:04:44;7;5;
75946;PMS5003;64628;50.104;14.614;2023-03-05T12:07:10;5;5;
75946;PMS5003;64628;50.104;14.614;2023-03-05T12:09:36;3;3;
75946;PMS5003;64628;50.104;14.614;2023-03-05T12:12:02;1;1;
75946;PMS5003;64628;50.104;14.614;2023-03-05T12:14:27;2;2;
75946;PMS5003;64628;50.104;14.614;2023-03-05T12:16:53;16;12;
75946;PMS5003;64628;50.104;14.614;2023-03-05T12:19:26;16;12;
75946;PMS5003;64628;50.104;14.614;2023-03-05T12:21:43;11;6;
75946;PMS5003;64628;50.104;14.614;2023-03-05T12:28:59;4;3;
75946;PMS5003;64628;50.104;14.614;2023-03-05T12:31:27;6;6;
75946;PMS5003;64628;50.104;14.614;2023-03-05T12:33:51;6;6;
75946;PMS5003;64628;50.104;14.614;2023-03-05T12:38:42;9;7;
75946;PMS5003;64628;50.104;14.614;2023-03-05T12:43:33;13;8;
75946;PMS5003;64628;50.104;14.614;2023-03-05T12:50:49;31;18;
75946;PMS5003;64628;50.104;14.614;2023-03-05T12:53:16;71;55;
75946;PMS5003;64628;50.104;14.614;2023-03-05T12:55:44;65;49;
75946;PMS5003;64628;50.104;14.614;2023-03-05T12:58:09;20;12;
75946;PMS5003;64628;50.104;14.614;2023-03-05T13:00:32;11;10;
75946;PMS5003;64628;50.104;14.614;2023-03-05T13:02:57;6;6;
75946;PMS5003;64628;50.104;14.614;2023-03-05T13:05:24;6;6;
75946;PMS5003;64628;50.104;14.614;2023-03-05T13:07:48;8;8;
75946;PMS5003;64628;50.104;14.614;2023-03-05T13:12:39;8;5;
75946;PMS5003;64628;50.104;14.614;2023-03-05T13:15:05;11;8;
75946;PMS5003;64628;50.104;14.614;2023-03-05T13:17:32;7;6;
75946;PMS5003;64628;50.104;14.614;2023-03-05T13:19:56;7;7;
75946;PMS5003;64628;50.104;14.614;2023-03-05T13:22:21;8;6;
75946;PMS5003;64628;50.104;14.614;2023-03-05T13:24:47;6;5;
75946;PMS5003;64628;50.104;14.614;2023-03-05T13:27:18;5;3;
75946;PMS5003;64628;50.104;14.614;2023-03-05T13:29:44;7;6;
75946;PMS5003;64628;50.104;14.614;2023-03-05T13:32:16;10;8;
75946;PMS5003;64628;50.104;14.614;2023-03-05T13:34:30;11;8;
75946;PMS5003;64628;50.104;14.614;2023-03-05T13:36:56;10;7;
75946;PMS5003;64628;50.104;14.614;2023-03-05T13:39:21;6;5;
75946;PMS5003;64628;50.104;14.614;2023-03-05T13:44:16;6;6;
75946;PMS5003;64628;50.104;14.614;2023-03-05T13:46:38;10;5;
75946;PMS5003;64628;50.104;14.614;2023-03-05T13:53:54;13;11;
75946;PMS5003;64628;50.104;14.614;2023-03-05T13:56:19;7;6;
75946;PMS5003;64628;50.104;14.614;2023-03-05T13:58:46;8;7;
75946;PMS5003;64628;50.104;14.614;2023-03-05T14:01:11;5;3;
75946;PMS5003;64628;50.104;14.614;2023-03-05T14:03:36;6;5;
75946;PMS5003;64628;50.104;14.614;2023-03-05T14:06:04;10;6;
75946;PMS5003;64628;50.104;14.614;2023-03-05T14:08:27;7;6;
75946;PMS5003;64628;50.104;14.614;2023-03-05T14:10:53;8;7;
75946;PMS5003;64628;50.104;14.614;2023-03-05T14:13:19;13;10;
75946;PMS5003;64628;50.104;14.614;2023-03-05T14:18:15;8;8;
75946;PMS5003;64628;50.104;14.614;2023-03-05T14:20:35;8;6;
75946;PMS5003;64628;50.104;14.614;2023-03-05T14:23:01;16;11;
75946;PMS5003;64628;50.104;14.614;2023-03-05T14:25:29;11;10;
75946;PMS5003;64628;50.104;14.614;2023-03-05T14:27:52;10;6;
75946;PMS5003;64628;50.104;14.614;2023-03-05T14:30:18;8;5;
75946;PMS5003;64628;50.104;14.614;2023-03-05T14:32:42;3;2;
75946;PMS5003;64628;50.104;14.614;2023-03-05T14:37:34;8;8;
75946;PMS5003;64628;50.104;14.614;2023-03-05T14:39:59;11;10;
75946;PMS5003;64628;50.104;14.614;2023-03-05T14:42:25;15;11;
75946;PMS5003;64628;50.104;14.614;2023-03-05T14:44:50;7;7;
75946;PMS5003;64628;50.104;14.614;2023-03-05T14:47:16;8;7;
75946;PMS5003;64628;50.104;14.614;2023-03-05T14:49:41;5;3;
75946;PMS5003;64628;50.104;14.614;2023-03-05T14:52:07;3;3;
75946;PMS5003;64628;50.104;14.614;2023-03-05T14:54:34;6;5;
75946;PMS5003;64628;50.104;14.614;2023-03-05T14:56:58;5;3;
75946;PMS5003;64628;50.104;14.614;2023-03-05T14:59:23;8;8;
75946;PMS5003;64628;50.104;14.614;2023-03-05T15:01:49;15;12;
75946;PMS5003;64628;50.104;14.614;2023-03-05T15:04:14;20;15;
75946;PMS5003;64628;50.104;14.614;2023-03-05T15:06:39;18;17;
75946;PMS5003;64628;50.104;14.614;2023-03-05T15:09:06;7;6;
75946;PMS5003;64628;50.104;14.614;2023-03-05T15:11:31;6;6;
75946;PMS5003;64628;50.104;14.614;2023-03-05T15:13:56;8;6;
75946;PMS5003;64628;50.104;14.614;2023-03-05T15:16:22;8;6;
75946;PMS5003;64628;50.104;14.614;2023-03-05T15:18:48;7;7;
75946;PMS5003;64628;50.104;14.614;2023-03-05T15:21:14;13;11;
75946;PMS5003;64628;50.104;14.614;2023-03-05T15:23:39;8;7;
75946;PMS5003;64628;50.104;14.614;2023-03-05T15:26:06;12;6;
75946;PMS5003;64628;50.104;14.614;2023-03-05T15:28:31;3;3;
75946;PMS5003;64628;50.104;14.614;2023-03-05T15:30:56;5;5;
75946;PMS5003;64628;50.104;14.614;2023-03-05T15:33:21;6;6;
75946;PMS5003;64628;50.104;14.614;2023-03-05T15:35:47;7;7;
75946;PMS5003;64628;50.104;14.614;2023-03-05T15:38:13;5;5;
75946;PMS5003;64628;50.104;14.614;2023-03-05T15:40:38;7;7;
75946;PMS5003;64628;50.104;14.614;2023-03-05T15:43:04;29;19;
75946;PMS5003;64628;50.104;14.614;2023-03-05T15:45:29;12;7;
75946;PMS5003;64628;50.104;14.614;2023-03-05T15:47:55;7;6;
75946;PMS5003;64628;50.104;14.614;2023-03-05T15:50:21;10;8;
75946;PMS5003;64628;50.104;14.614;2023-03-05T15:52:46;8;8;
75946;PMS5003;64628;50.104;14.614;2023-03-05T15:55:12;15;12;
75946;PMS5003;64628;50.104;14.614;2023-03-05T15:57:41;19;15;
75946;PMS5003;64628;50.104;14.614;2023-03-05T16:00:04;39;30;
75946;PMS5003;64628;50.104;14.614;2023-03-05T16:02:28;16;13;
75946;PMS5003;64628;50.104;14.614;2023-03-05T16:04:53;6;6;
75946;PMS5003;64628;50.104;14.614;2023-03-05T16:07:19;8;7;
75946;PMS5003;64628;50.104;14.614;2023-03-05T16:09:45;11;11;
75946;PMS5003;64628;50.104;14.614;2023-03-05T16:12:11;16;11;
75946;PMS5003;64628;50.104;14.614;2023-03-05T16:14:36;8;8;
75946;PMS5003;64628;50.104;14.614;2023-03-05T16:17:02;6;5;
75946;PMS5003;64628;50.104;14.614;2023-03-05T16:19:28;7;5;
75946;PMS5003;64628;50.104;14.614;2023-03-05T16:21:53;6;6;
75946;PMS5003;64628;50.104;14.614;2023-03-05T16:24:18;5;5;
75946;PMS5003;64628;50.104;14.614;2023-03-05T16:26:44;7;7;
75946;PMS5003;64628;50.104;14.614;2023-03-05T16:29:10;8;5;
75946;PMS5003;64628;50.104;14.614;2023-03-05T16:31:36;7;5;
75946;PMS5003;64628;50.104;14.614;2023-03-05T16:34:01;6;6;
75946;PMS5003;64628;50.104;14.614;2023-03-05T16:36:28;6;5;